METAR AND TAF INFORMATION
METAR FOR ESSA
ADDS - METARS form results

(1525 UTC 23 April 2018)
Data provider http://aviationweather.gov/adds/metars/
 
METAR text: ESSA 231520Z 14012KT 9999 -RA SCT019 BKN028 06/03 Q1004 BECMG BKN008
Conditions at: ESSA (STOCKHOLM/ARLAND, SE) observed 1520 UTC 23 April 2018
Temperature: 6.0°C (43°F)
Dewpoint: 3.0°C (37°F) [RH = 81%]
Pressure (altimeter): 29.65 inches Hg (1004.0 mb)
Winds: from the SE (140 degrees) at 14 MPH (12 knots; 6.2 m/s)
Visibility: 6 or more miles (10+ km)
Ceiling: 2800 feet AGL
Clouds: scattered clouds at 1900 feet AGL
broken clouds at 2800 feet AGL
Weather: -RA  (light rain)

METAR text: ESSA 231450Z 14012KT 9999 RA SCT033 BKN049 BKN061 06/03 Q1004 NOSIG
Conditions at: ESSA (STOCKHOLM/ARLAND, SE) observed 1450 UTC 23 April 2018
Temperature: 6.0°C (43°F)
Dewpoint: 3.0°C (37°F) [RH = 81%]
Pressure (altimeter): 29.65 inches Hg (1004.0 mb)
Winds: from the SE (140 degrees) at 14 MPH (12 knots; 6.2 m/s)
Visibility: 6 or more miles (10+ km)
Ceiling: 4900 feet AGL
Clouds: scattered clouds at 3300 feet AGL
broken clouds at 4900 feet AGL
broken clouds at 6100 feet AGL
Weather: RA  (rain)

Forecast for: ESSA (STOCKHOLM/ARLAND, SE)
Text: TAF AMD ESSA 231458Z 2314/2412 14012KT 9999 -RA SCT010 BKN030
Forecast period: 1400 to 1900 UTC 23 April 2018
Forecast type: FROM: standard forecast or significant change
Winds: from the SE (140 degrees) at 14 MPH (12 knots; 6.2 m/s)
Visibility: 6 or more miles (10+ km)
Ceiling: 3000 feet AGL
Clouds: scattered clouds at 1000 feet AGL
broken clouds at 3000 feet AGL
Weather: -RA  (light rain)
Forecast for: ESSA (STOCKHOLM/ARLAND, SE)
Text: TAF AMD ESSA 231458Z 2314/2412 14012KT 9999 -RA SCT010 BKN030
Forecast period: 1400 to 1900 UTC 23 April 2018
Forecast type: FROM: standard forecast or significant change
Winds: from the SE (140 degrees) at 14 MPH (12 knots; 6.2 m/s)
Visibility: 6 or more miles (10+ km)
Ceiling: 3000 feet AGL
Clouds: scattered clouds at 1000 feet AGL
broken clouds at 3000 feet AGL
Weather: -RA  (light rain)
Forecast for: ESSA (STOCKHOLM/ARLAND, SE)
Text: TAF AMD ESSA 231458Z 2314/2412 14012KT 9999 -RA SCT010 BKN030
Forecast period: 1400 to 1600 UTC 23 April 2018
Forecast type: TEMPORARY: The following changes expected for less than half the time period
Visibility: 2.49 miles (4.01 km)
Ceiling: 700 feet AGL
Clouds: broken clouds at 700 feet AGL
Weather: RA  (rain)
Forecast for: ESSA (STOCKHOLM/ARLAND, SE)
Text: TAF AMD ESSA 231458Z 2314/2412 14012KT 9999 -RA SCT010 BKN030
Forecast period: 1400 to 1600 UTC 23 April 2018
Forecast type: TEMPORARY: The following changes expected for less than half the time period
Visibility: 2.49 miles (4.01 km)
Ceiling: 700 feet AGL
Clouds: broken clouds at 700 feet AGL
Weather: RA  (rain)
Forecast for: ESSA (STOCKHOLM/ARLAND, SE)
Text: TAF AMD ESSA 231458Z 2314/2412 14012KT 9999 -RA SCT010 BKN030
Forecast period: 1600 to 2000 UTC 23 April 2018
Forecast type: TEMPORARY: The following changes expected for less than half the time period
Visibility: 1.24 miles (2.00 km)
Ceiling: 400 feet AGL
Clouds: broken clouds at 400 feet AGL
Weather: -RA -DZ BR  (light rain, light drizzle, mist)
Forecast for: ESSA (STOCKHOLM/ARLAND, SE)
Text: TAF AMD ESSA 231458Z 2314/2412 14012KT 9999 -RA SCT010 BKN030
Forecast period: 1600 to 2000 UTC 23 April 2018
Forecast type: TEMPORARY: The following changes expected for less than half the time period
Visibility: 1.24 miles (2.00 km)
Ceiling: 400 feet AGL
Clouds: broken clouds at 400 feet AGL
Weather: -RA -DZ BR  (light rain, light drizzle, mist)
Forecast for: ESSA (STOCKHOLM/ARLAND, SE)
Text: TAF AMD ESSA 231458Z 2314/2412 14012KT 9999 -RA SCT010 BKN030
Forecast period: 1900 UTC 23 April 2018 to 1200 UTC 24 April 2018
Forecast type: BECOMING: Conditions expected to become as follows by 2100 UTC 23 April 2018
Winds: from the SW (220 degrees) at 9 MPH (8 knots; 4.2 m/s)
Visibility: 6 or more miles (10+ km)
Ceiling: 3000 feet AGL
Clouds: scattered clouds at 1000 feet AGL
broken clouds at 3000 feet AGL
Weather: -RA  (light rain)
Forecast for: ESSA (STOCKHOLM/ARLAND, SE)
Text: TAF AMD ESSA 231458Z 2314/2412 14012KT 9999 -RA SCT010 BKN030
Forecast period: 1900 UTC 23 April 2018 to 1200 UTC 24 April 2018
Forecast type: BECOMING: Conditions expected to become as follows by 2100 UTC 23 April 2018
Winds: from the SW (220 degrees) at 9 MPH (8 knots; 4.2 m/s)
Visibility: 6 or more miles (10+ km)
Ceiling: 3000 feet AGL
Clouds: scattered clouds at 1000 feet AGL
broken clouds at 3000 feet AGL
Weather: -RA  (light rain)

 AIRPORT MAP

 RUNWAY INFORMATION
Runway 01L Runway length 10830 ft Runway width 148 ft
Runway elevation 98 ft Runway displaced threshold 0 ft Runway heading 10
Runway 19R Runway length 10830 ft Runway width 148 ft
Runway elevation 118 ft Runway displaced threshold 0 ft Runway heading 190
Runway 01R Runway length 8201 ft Runway width 148 ft
Runway elevation 137 ft Runway displaced threshold 0 ft Runway heading 10
Runway 19L Runway length 8201 ft Runway width 148 ft
Runway elevation 98 ft Runway displaced threshold 0 ft Runway heading 190
Runway 08 Runway length 8202 ft Runway width 148 ft
Runway elevation 108 ft Runway displaced threshold 0 ft Runway heading 76
Runway 26 Runway length 8202 ft Runway width 148 ft
Runway elevation 124 ft Runway displaced threshold 0 ft Runway heading 256

 AIRPORT FREQUENCIES
Type APP Name STOCKHOLM Frequency 123.75 MHZ
Type ATIS Name ATIS Frequency 119 MHZ
Type CLD Name CLNC DEL Frequency 121.825 MHZ
Type GND Name GND Frequency 121.7 MHZ
Type PMSV Name MET OFFICE Frequency 122.6 MHZ
Type TWR Name TWR Frequency 118.5 MHZ

 AIRPORT NEAR NAVIGATION AIDS
Type VOR-DME Name Arlanda Frequency 116000 KHZ
Type NDB Name Arlanda Frequency 352 KHZ
Type NDB Name Arlanda Frequency 360 KHZ
Type NDB Name Arlanda Frequency 404 KHZ
Type NDB Name Arlanda Frequency 370 KHZ



Powered by Virtual Airlines Manager [v2.6.2]